sensor_id;sensor_type;location;lat;lon;timestamp;P1;durP1;ratioP1;P2;durP2;ratioP2
70303;SDS011;57712;48.752;11.348;2023-09-19T00:00:22;4.20;;;1.00;;
70303;SDS011;57712;48.752;11.348;2023-09-19T00:02:56;5.93;;;0.90;;
70303;SDS011;57712;48.752;11.348;2023-09-19T00:05:23;6.03;;;1.17;;
70303;SDS011;57712;48.752;11.348;2023-09-19T00:07:51;5.65;;;1.13;;
70303;SDS011;57712;48.752;11.348;2023-09-19T00:10:24;5.63;;;1.27;;
70303;SDS011;57712;48.752;11.348;2023-09-19T00:12:53;6.13;;;1.33;;
70303;SDS011;57712;48.752;11.348;2023-09-19T00:15:25;6.47;;;1.00;;
70303;SDS011;57712;48.752;11.348;2023-09-19T00:17:55;4.93;;;1.23;;
70303;SDS011;57712;48.752;11.348;2023-09-19T00:20:22;4.60;;;1.13;;
70303;SDS011;57712;48.752;11.348;2023-09-19T00:22:50;7.13;;;1.17;;
70303;SDS011;57712;48.752;11.348;2023-09-19T00:25:18;5.97;;;1.13;;
70303;SDS011;57712;48.752;11.348;2023-09-19T00:27:46;5.80;;;1.15;;
70303;SDS011;57712;48.752;11.348;2023-09-19T00:30:18;7.30;;;1.63;;
70303;SDS011;57712;48.752;11.348;2023-09-19T00:32:50;7.55;;;1.15;;
70303;SDS011;57712;48.752;11.348;2023-09-19T00:35:21;5.15;;;1.20;;
70303;SDS011;57712;48.752;11.348;2023-09-19T00:37:51;7.55;;;1.40;;
70303;SDS011;57712;48.752;11.348;2023-09-19T00:40:19;6.32;;;1.45;;
70303;SDS011;57712;48.752;11.348;2023-09-19T00:42:48;5.20;;;1.13;;
70303;SDS011;57712;48.752;11.348;2023-09-19T00:45:16;5.22;;;1.30;;
70303;SDS011;57712;48.752;11.348;2023-09-19T00:47:45;4.55;;;1.30;;
70303;SDS011;57712;48.752;11.348;2023-09-19T00:50:18;5.78;;;1.33;;
70303;SDS011;57712;48.752;11.348;2023-09-19T00:52:47;5.60;;;1.20;;
70303;SDS011;57712;48.752;11.348;2023-09-19T00:55:16;6.73;;;1.40;;
70303;SDS011;57712;48.752;11.348;2023-09-19T00:57:46;5.72;;;1.48;;
70303;SDS011;57712;48.752;11.348;2023-09-19T01:00:14;6.82;;;1.75;;
70303;SDS011;57712;48.752;11.348;2023-09-19T01:02:42;5.82;;;1.73;;
70303;SDS011;57712;48.752;11.348;2023-09-19T01:05:10;7.10;;;1.20;;
70303;SDS011;57712;48.752;11.348;2023-09-19T01:07:38;4.97;;;1.40;;
70303;SDS011;57712;48.752;11.348;2023-09-19T01:10:08;5.43;;;1.33;;
70303;SDS011;57712;48.752;11.348;2023-09-19T01:12:42;7.47;;;1.63;;
70303;SDS011;57712;48.752;11.348;2023-09-19T01:15:25;6.72;;;1.25;;
70303;SDS011;57712;48.752;11.348;2023-09-19T01:20:42;8.83;;;1.33;;
70303;SDS011;57712;48.752;11.348;2023-09-19T01:23:19;5.47;;;1.33;;
70303;SDS011;57712;48.752;11.348;2023-09-19T01:28:45;5.55;;;1.27;;
70303;SDS011;57712;48.752;11.348;2023-09-19T01:31:28;4.82;;;1.33;;
70303;SDS011;57712;48.752;11.348;2023-09-19T01:36:27;6.72;;;1.08;;
70303;SDS011;57712;48.752;11.348;2023-09-19T01:38:55;4.80;;;1.20;;
70303;SDS011;57712;48.752;11.348;2023-09-19T01:44:28;4.57;;;1.13;;
70303;SDS011;57712;48.752;11.348;2023-09-19T01:47:04;6.63;;;1.50;;
70303;SDS011;57712;48.752;11.348;2023-09-19T01:49:42;4.72;;;1.20;;
70303;SDS011;57712;48.752;11.348;2023-09-19T01:52:16;4.28;;;1.10;;
70303;SDS011;57712;48.752;11.348;2023-09-19T01:54:48;7.45;;;1.23;;
70303;SDS011;57712;48.752;11.348;2023-09-19T01:57:20;5.35;;;1.20;;
70303;SDS011;57712;48.752;11.348;2023-09-19T02:00:00;5.53;;;0.90;;
70303;SDS011;57712;48.752;11.348;2023-09-19T02:02:36;4.28;;;1.05;;
70303;SDS011;57712;48.752;11.348;2023-09-19T02:05:04;5.05;;;1.40;;
70303;SDS011;57712;48.752;11.348;2023-09-19T02:07:32;5.63;;;1.10;;
70303;SDS011;57712;48.752;11.348;2023-09-19T02:09:59;4.95;;;1.25;;
70303;SDS011;57712;48.752;11.348;2023-09-19T02:12:38;5.20;;;1.00;;
70303;SDS011;57712;48.752;11.348;2023-09-19T02:15:05;5.45;;;1.58;;
70303;SDS011;57712;48.752;11.348;2023-09-19T02:17:33;4.97;;;1.00;;
70303;SDS011;57712;48.752;11.348;2023-09-19T02:20:00;5.88;;;1.17;;
70303;SDS011;57712;48.752;11.348;2023-09-19T02:22:27;4.85;;;1.25;;
70303;SDS011;57712;48.752;11.348;2023-09-19T02:24:54;4.47;;;1.23;;
70303;SDS011;57712;48.752;11.348;2023-09-19T02:27:21;5.38;;;1.27;;
70303;SDS011;57712;48.752;11.348;2023-09-19T02:29:47;6.82;;;1.20;;
70303;SDS011;57712;48.752;11.348;2023-09-19T02:32:16;4.82;;;1.40;;
70303;SDS011;57712;48.752;11.348;2023-09-19T02:34:44;4.95;;;0.98;;
70303;SDS011;57712;48.752;11.348;2023-09-19T02:37:11;4.33;;;1.10;;
70303;SDS011;57712;48.752;11.348;2023-09-19T02:39:39;5.82;;;1.38;;
70303;SDS011;57712;48.752;11.348;2023-09-19T02:42:06;4.80;;;1.23;;
70303;SDS011;57712;48.752;11.348;2023-09-19T02:44:33;4.45;;;1.17;;
70303;SDS011;57712;48.752;11.348;2023-09-19T02:47:00;5.95;;;1.42;;
70303;SDS011;57712;48.752;11.348;2023-09-19T02:49:27;5.83;;;1.17;;
70303;SDS011;57712;48.752;11.348;2023-09-19T02:51:53;6.47;;;0.95;;
70303;SDS011;57712;48.752;11.348;2023-09-19T02:54:20;4.80;;;0.82;;
70303;SDS011;57712;48.752;11.348;2023-09-19T02:56:48;5.68;;;1.10;;
70303;SDS011;57712;48.752;11.348;2023-09-19T02:59:15;4.60;;;0.90;;
70303;SDS011;57712;48.752;11.348;2023-09-19T03:01:45;5.10;;;0.87;;
70303;SDS011;57712;48.752;11.348;2023-09-19T03:04:14;4.65;;;0.95;;
70303;SDS011;57712;48.752;11.348;2023-09-19T03:06:46;4.80;;;0.93;;
70303;SDS011;57712;48.752;11.348;2023-09-19T03:09:17;4.60;;;0.80;;
70303;SDS011;57712;48.752;11.348;2023-09-19T03:11:45;3.85;;;0.88;;
70303;SDS011;57712;48.752;11.348;2023-09-19T03:14:12;4.83;;;1.00;;
70303;SDS011;57712;48.752;11.348;2023-09-19T03:16:40;5.13;;;0.90;;
70303;SDS011;57712;48.752;11.348;2023-09-19T03:19:07;4.38;;;0.80;;
70303;SDS011;57712;48.752;11.348;2023-09-19T03:21:36;4.43;;;1.02;;
70303;SDS011;57712;48.752;11.348;2023-09-19T03:24:03;4.50;;;1.00;;
70303;SDS011;57712;48.752;11.348;2023-09-19T03:26:30;4.00;;;0.50;;
70303;SDS011;57712;48.752;11.348;2023-09-19T03:28:57;4.53;;;0.88;;
70303;SDS011;57712;48.752;11.348;2023-09-19T03:31:24;4.07;;;0.73;;
70303;SDS011;57712;48.752;11.348;2023-09-19T03:33:50;4.30;;;0.82;;
70303;SDS011;57712;48.752;11.348;2023-09-19T03:36:17;3.90;;;0.77;;
70303;SDS011;57712;48.752;11.348;2023-09-19T03:38:44;4.83;;;0.60;;
70303;SDS011;57712;48.752;11.348;2023-09-19T03:41:10;4.95;;;0.70;;
70303;SDS011;57712;48.752;11.348;2023-09-19T03:43:40;4.72;;;1.02;;
70303;SDS011;57712;48.752;11.348;2023-09-19T03:46:07;4.78;;;0.73;;
70303;SDS011;57712;48.752;11.348;2023-09-19T03:48:34;4.15;;;0.90;;
70303;SDS011;57712;48.752;11.348;2023-09-19T03:51:01;5.80;;;1.00;;
70303;SDS011;57712;48.752;11.348;2023-09-19T03:53:28;4.15;;;0.90;;
70303;SDS011;57712;48.752;11.348;2023-09-19T03:55:55;4.55;;;0.80;;
70303;SDS011;57712;48.752;11.348;2023-09-19T03:58:21;4.72;;;0.70;;
70303;SDS011;57712;48.752;11.348;2023-09-19T04:00:48;5.05;;;0.85;;
70303;SDS011;57712;48.752;11.348;2023-09-19T04:03:16;4.97;;;0.90;;
70303;SDS011;57712;48.752;11.348;2023-09-19T04:05:47;3.30;;;0.55;;
70303;SDS011;57712;48.752;11.348;2023-09-19T04:08:14;5.45;;;0.70;;
70303;SDS011;57712;48.752;11.348;2023-09-19T04:10:43;4.35;;;0.80;;
70303;SDS011;57712;48.752;11.348;2023-09-19T04:13:12;5.75;;;0.90;;
70303;SDS011;57712;48.752;11.348;2023-09-19T04:15:38;5.57;;;0.90;;
70303;SDS011;57712;48.752;11.348;2023-09-19T04:18:06;4.95;;;0.98;;
70303;SDS011;57712;48.752;11.348;2023-09-19T04:20:33;3.88;;;0.70;;
70303;SDS011;57712;48.752;11.348;2023-09-19T04:22:59;5.97;;;1.08;;
70303;SDS011;57712;48.752;11.348;2023-09-19T04:25:26;4.35;;;1.20;;
70303;SDS011;57712;48.752;11.348;2023-09-19T04:27:54;5.67;;;1.07;;
70303;SDS011;57712;48.752;11.348;2023-09-19T04:30:21;7.47;;;1.10;;
70303;SDS011;57712;48.752;11.348;2023-09-19T04:32:47;5.03;;;1.20;;
70303;SDS011;57712;48.752;11.348;2023-09-19T04:35:17;4.53;;;1.10;;
70303;SDS011;57712;48.752;11.348;2023-09-19T04:37:44;5.63;;;1.30;;
70303;SDS011;57712;48.752;11.348;2023-09-19T04:40:11;3.97;;;0.93;;
70303;SDS011;57712;48.752;11.348;2023-09-19T04:42:44;4.85;;;1.30;;
70303;SDS011;57712;48.752;11.348;2023-09-19T04:45:10;5.68;;;1.58;;
70303;SDS011;57712;48.752;11.348;2023-09-19T04:47:38;5.88;;;1.30;;
70303;SDS011;57712;48.752;11.348;2023-09-19T04:50:09;5.00;;;1.63;;
70303;SDS011;57712;48.752;11.348;2023-09-19T04:52:41;4.57;;;1.20;;
70303;SDS011;57712;48.752;11.348;2023-09-19T04:55:12;4.70;;;1.40;;
70303;SDS011;57712;48.752;11.348;2023-09-19T04:57:47;5.22;;;1.80;;
70303;SDS011;57712;48.752;11.348;2023-09-19T05:00:15;5.45;;;1.73;;
70303;SDS011;57712;48.752;11.348;2023-09-19T05:02:51;7.28;;;1.40;;
70303;SDS011;57712;48.752;11.348;2023-09-19T05:05:18;4.83;;;1.30;;
70303;SDS011;57712;48.752;11.348;2023-09-19T05:07:45;5.15;;;1.20;;
70303;SDS011;57712;48.752;11.348;2023-09-19T05:10:12;5.18;;;1.38;;
70303;SDS011;57712;48.752;11.348;2023-09-19T05:12:40;6.90;;;1.55;;
70303;SDS011;57712;48.752;11.348;2023-09-19T05:15:07;7.68;;;1.77;;
70303;SDS011;57712;48.752;11.348;2023-09-19T05:17:34;6.13;;;1.60;;
70303;SDS011;57712;48.752;11.348;2023-09-19T05:20:02;6.38;;;1.80;;
70303;SDS011;57712;48.752;11.348;2023-09-19T05:22:32;5.20;;;1.88;;
70303;SDS011;57712;48.752;11.348;2023-09-19T05:24:59;6.97;;;1.98;;
70303;SDS011;57712;48.752;11.348;2023-09-19T05:27:26;5.10;;;1.77;;
70303;SDS011;57712;48.752;11.348;2023-09-19T05:29:52;5.20;;;1.43;;
70303;SDS011;57712;48.752;11.348;2023-09-19T05:32:19;4.72;;;1.60;;
70303;SDS011;57712;48.752;11.348;2023-09-19T05:34:46;6.78;;;1.65;;
70303;SDS011;57712;48.752;11.348;2023-09-19T05:37:16;5.90;;;1.80;;
70303;SDS011;57712;48.752;11.348;2023-09-19T05:39:42;6.20;;;1.70;;
70303;SDS011;57712;48.752;11.348;2023-09-19T05:42:10;5.17;;;1.70;;
70303;SDS011;57712;48.752;11.348;2023-09-19T05:44:36;5.30;;;1.65;;
70303;SDS011;57712;48.752;11.348;2023-09-19T05:47:03;5.95;;;1.83;;
70303;SDS011;57712;48.752;11.348;2023-09-19T05:49:30;5.75;;;1.80;;
70303;SDS011;57712;48.752;11.348;2023-09-19T05:51:57;7.25;;;2.25;;
70303;SDS011;57712;48.752;11.348;2023-09-19T05:54:25;5.03;;;1.80;;
70303;SDS011;57712;48.752;11.348;2023-09-19T05:56:52;5.47;;;1.95;;
70303;SDS011;57712;48.752;11.348;2023-09-19T05:59:19;5.95;;;1.95;;
70303;SDS011;57712;48.752;11.348;2023-09-19T06:01:46;6.97;;;1.88;;
70303;SDS011;57712;48.752;11.348;2023-09-19T06:04:13;6.32;;;1.77;;
70303;SDS011;57712;48.752;11.348;2023-09-19T06:06:40;5.87;;;1.77;;
70303;SDS011;57712;48.752;11.348;2023-09-19T06:09:06;6.10;;;1.73;;
70303;SDS011;57712;48.752;11.348;2023-09-19T06:11:36;4.75;;;1.75;;
70303;SDS011;57712;48.752;11.348;2023-09-19T06:14:03;6.75;;;2.08;;
70303;SDS011;57712;48.752;11.348;2023-09-19T06:16:30;7.60;;;1.80;;
70303;SDS011;57712;48.752;11.348;2023-09-19T06:19:00;5.47;;;1.60;;
70303;SDS011;57712;48.752;11.348;2023-09-19T06:21:27;7.30;;;1.92;;
70303;SDS011;57712;48.752;11.348;2023-09-19T06:23:54;5.95;;;1.77;;
70303;SDS011;57712;48.752;11.348;2023-09-19T06:26:20;5.72;;;1.75;;
70303;SDS011;57712;48.752;11.348;2023-09-19T06:28:47;7.10;;;2.00;;
70303;SDS011;57712;48.752;11.348;2023-09-19T06:31:14;4.70;;;1.70;;
70303;SDS011;57712;48.752;11.348;2023-09-19T06:33:40;5.57;;;1.73;;
70303;SDS011;57712;48.752;11.348;2023-09-19T06:36:08;7.65;;;1.63;;
70303;SDS011;57712;48.752;11.348;2023-09-19T06:38:35;5.65;;;1.65;;
70303;SDS011;57712;48.752;11.348;2023-09-19T06:41:02;5.13;;;1.48;;
70303;SDS011;57712;48.752;11.348;2023-09-19T06:43:33;5.03;;;1.13;;
70303;SDS011;57712;48.752;11.348;2023-09-19T06:46:00;5.63;;;1.63;;
70303;SDS011;57712;48.752;11.348;2023-09-19T06:48:28;5.55;;;1.40;;
70303;SDS011;57712;48.752;11.348;2023-09-19T06:50:56;5.90;;;1.30;;
70303;SDS011;57712;48.752;11.348;2023-09-19T06:53:25;5.57;;;1.40;;
70303;SDS011;57712;48.752;11.348;2023-09-19T06:55:51;3.87;;;0.87;;
70303;SDS011;57712;48.752;11.348;2023-09-19T06:58:18;7.47;;;1.67;;
70303;SDS011;57712;48.752;11.348;2023-09-19T07:00:47;4.72;;;1.33;;
70303;SDS011;57712;48.752;11.348;2023-09-19T07:03:13;5.38;;;1.25;;
70303;SDS011;57712;48.752;11.348;2023-09-19T07:05:42;5.40;;;1.48;;
70303;SDS011;57712;48.752;11.348;2023-09-19T07:08:09;5.50;;;1.20;;
70303;SDS011;57712;48.752;11.348;2023-09-19T07:10:39;5.05;;;1.50;;
70303;SDS011;57712;48.752;11.348;2023-09-19T07:13:16;5.05;;;1.38;;
70303;SDS011;57712;48.752;11.348;2023-09-19T07:15:43;4.93;;;1.17;;
70303;SDS011;57712;48.752;11.348;2023-09-19T07:18:14;5.43;;;1.60;;
70303;SDS011;57712;48.752;11.348;2023-09-19T07:20:43;5.00;;;1.10;;
70303;SDS011;57712;48.752;11.348;2023-09-19T07:23:20;4.85;;;1.15;;
70303;SDS011;57712;48.752;11.348;2023-09-19T07:25:49;5.22;;;1.45;;
70303;SDS011;57712;48.752;11.348;2023-09-19T07:28:16;5.13;;;1.40;;
70303;SDS011;57712;48.752;11.348;2023-09-19T07:30:43;4.18;;;1.25;;
70303;SDS011;57712;48.752;11.348;2023-09-19T07:33:10;4.97;;;0.90;;
70303;SDS011;57712;48.752;11.348;2023-09-19T07:35:38;5.65;;;1.25;;
70303;SDS011;57712;48.752;11.348;2023-09-19T07:38:08;4.72;;;1.13;;
70303;SDS011;57712;48.752;11.348;2023-09-19T07:40:36;6.28;;;1.50;;
70303;SDS011;57712;48.752;11.348;2023-09-19T07:43:03;4.15;;;1.00;;
70303;SDS011;57712;48.752;11.348;2023-09-19T07:45:31;4.27;;;1.07;;
70303;SDS011;57712;48.752;11.348;2023-09-19T07:47:58;6.40;;;1.10;;
70303;SDS011;57712;48.752;11.348;2023-09-19T07:50:30;5.05;;;0.80;;
70303;SDS011;57712;48.752;11.348;2023-09-19T07:52:59;5.45;;;0.88;;
70303;SDS011;57712;48.752;11.348;2023-09-19T07:55:26;5.30;;;1.30;;
70303;SDS011;57712;48.752;11.348;2023-09-19T07:57:52;5.03;;;1.33;;
70303;SDS011;57712;48.752;11.348;2023-09-19T08:00:19;3.58;;;0.90;;
70303;SDS011;57712;48.752;11.348;2023-09-19T08:02:46;4.38;;;1.00;;
70303;SDS011;57712;48.752;11.348;2023-09-19T08:05:23;4.15;;;1.20;;
70303;SDS011;57712;48.752;11.348;2023-09-19T08:07:50;5.03;;;1.30;;
70303;SDS011;57712;48.752;11.348;2023-09-19T08:10:19;4.10;;;1.00;;
70303;SDS011;57712;48.752;11.348;2023-09-19T08:12:48;3.95;;;0.85;;
70303;SDS011;57712;48.752;11.348;2023-09-19T08:15:16;5.65;;;1.05;;
70303;SDS011;57712;48.752;11.348;2023-09-19T08:17:46;4.15;;;0.85;;
70303;SDS011;57712;48.752;11.348;2023-09-19T08:20:14;4.15;;;0.70;;
70303;SDS011;57712;48.752;11.348;2023-09-19T08:22:52;4.87;;;0.83;;
70303;SDS011;57712;48.752;11.348;2023-09-19T08:25:21;4.85;;;0.90;;
70303;SDS011;57712;48.752;11.348;2023-09-19T08:27:49;3.65;;;0.60;;
70303;SDS011;57712;48.752;11.348;2023-09-19T08:30:16;4.43;;;1.25;;
70303;SDS011;57712;48.752;11.348;2023-09-19T08:32:44;4.38;;;0.90;;
70303;SDS011;57712;48.752;11.348;2023-09-19T08:35:13;4.37;;;1.03;;
70303;SDS011;57712;48.752;11.348;2023-09-19T08:37:41;3.80;;;0.68;;
70303;SDS011;57712;48.752;11.348;2023-09-19T08:40:09;4.53;;;0.70;;
70303;SDS011;57712;48.752;11.348;2023-09-19T08:42:52;4.15;;;0.57;;
70303;SDS011;57712;48.752;11.348;2023-09-19T08:45:20;5.50;;;0.75;;
70303;SDS011;57712;48.752;11.348;2023-09-19T08:47:53;4.03;;;0.80;;
70303;SDS011;57712;48.752;11.348;2023-09-19T08:50:29;3.97;;;0.60;;
70303;SDS011;57712;48.752;11.348;2023-09-19T08:52:59;3.72;;;1.00;;
70303;SDS011;57712;48.752;11.348;2023-09-19T08:55:28;4.32;;;0.90;;
70303;SDS011;57712;48.752;11.348;2023-09-19T08:57:59;6.50;;;0.57;;
70303;SDS011;57712;48.752;11.348;2023-09-19T09:00:36;5.33;;;0.77;;
70303;SDS011;57712;48.752;11.348;2023-09-19T09:03:03;3.28;;;0.55;;
70303;SDS011;57712;48.752;11.348;2023-09-19T09:05:33;4.13;;;0.88;;
70303;SDS011;57712;48.752;11.348;2023-09-19T09:08:03;4.00;;;0.77;;
70303;SDS011;57712;48.752;11.348;2023-09-19T09:10:32;5.28;;;0.85;;
70303;SDS011;57712;48.752;11.348;2023-09-19T09:12:59;3.60;;;0.60;;
70303;SDS011;57712;48.752;11.348;2023-09-19T09:15:27;3.60;;;0.80;;
70303;SDS011;57712;48.752;11.348;2023-09-19T09:17:56;3.42;;;0.60;;
70303;SDS011;57712;48.752;11.348;2023-09-19T09:20:24;3.88;;;0.90;;
70303;SDS011;57712;48.752;11.348;2023-09-19T09:22:53;3.83;;;0.88;;
70303;SDS011;57712;48.752;11.348;2023-09-19T09:25:21;4.23;;;0.77;;
70303;SDS011;57712;48.752;11.348;2023-09-19T09:28:09;3.70;;;0.68;;
70303;SDS011;57712;48.752;11.348;2023-09-19T09:30:37;5.28;;;0.88;;
70303;SDS011;57712;48.752;11.348;2023-09-19T09:33:07;3.80;;;0.73;;
70303;SDS011;57712;48.752;11.348;2023-09-19T09:38:19;4.73;;;0.87;;
70303;SDS011;57712;48.752;11.348;2023-09-19T09:40:47;4.20;;;0.82;;
70303;SDS011;57712;48.752;11.348;2023-09-19T09:43:29;4.03;;;0.77;;
70303;SDS011;57712;48.752;11.348;2023-09-19T09:46:11;3.67;;;0.95;;
70303;SDS011;57712;48.752;11.348;2023-09-19T09:48:48;4.20;;;1.17;;
70303;SDS011;57712;48.752;11.348;2023-09-19T09:51:45;4.53;;;0.70;;
70303;SDS011;57712;48.752;11.348;2023-09-19T09:54:24;4.13;;;0.90;;
70303;SDS011;57712;48.752;11.348;2023-09-19T09:57:00;4.72;;;1.20;;
70303;SDS011;57712;48.752;11.348;2023-09-19T10:02:14;5.80;;;0.82;;
70303;SDS011;57712;48.752;11.348;2023-09-19T10:04:47;3.93;;;0.70;;
70303;SDS011;57712;48.752;11.348;2023-09-19T10:07:36;3.45;;;0.80;;
70303;SDS011;57712;48.752;11.348;2023-09-19T10:10:37;3.85;;;0.88;;
70303;SDS011;57712;48.752;11.348;2023-09-19T10:13:10;3.78;;;0.82;;
70303;SDS011;57712;48.752;11.348;2023-09-19T10:15:41;3.97;;;0.95;;
70303;SDS011;57712;48.752;11.348;2023-09-19T10:18:15;6.13;;;0.90;;
70303;SDS011;57712;48.752;11.348;2023-09-19T10:20:53;3.97;;;0.90;;
70303;SDS011;57712;48.752;11.348;2023-09-19T10:23:21;5.10;;;1.27;;
70303;SDS011;57712;48.752;11.348;2023-09-19T10:25:50;4.57;;;1.05;;
70303;SDS011;57712;48.752;11.348;2023-09-19T10:28:19;4.25;;;1.30;;
70303;SDS011;57712;48.752;11.348;2023-09-19T10:30:51;4.33;;;0.97;;
70303;SDS011;57712;48.752;11.348;2023-09-19T10:33:20;4.30;;;1.00;;
70303;SDS011;57712;48.752;11.348;2023-09-19T10:35:49;4.32;;;1.15;;
70303;SDS011;57712;48.752;11.348;2023-09-19T10:38:23;4.25;;;0.95;;
70303;SDS011;57712;48.752;11.348;2023-09-19T10:40:52;8.68;;;1.55;;
70303;SDS011;57712;48.752;11.348;2023-09-19T10:43:20;3.60;;;1.00;;
70303;SDS011;57712;48.752;11.348;2023-09-19T10:45:49;3.83;;;1.00;;
70303;SDS011;57712;48.752;11.348;2023-09-19T10:48:19;4.45;;;1.30;;
70303;SDS011;57712;48.752;11.348;2023-09-19T10:50:48;3.83;;;0.68;;
70303;SDS011;57712;48.752;11.348;2023-09-19T10:53:21;5.53;;;1.15;;
70303;SDS011;57712;48.752;11.348;2023-09-19T10:55:54;4.00;;;0.80;;
70303;SDS011;57712;48.752;11.348;2023-09-19T10:58:27;6.18;;;0.60;;
70303;SDS011;57712;48.752;11.348;2023-09-19T11:00:56;4.03;;;0.90;;
70303;SDS011;57712;48.752;11.348;2023-09-19T11:03:32;4.93;;;1.00;;
70303;SDS011;57712;48.752;11.348;2023-09-19T11:06:09;4.90;;;1.10;;
70303;SDS011;57712;48.752;11.348;2023-09-19T11:08:55;4.63;;;0.70;;
70303;SDS011;57712;48.752;11.348;2023-09-19T11:11:43;5.95;;;0.70;;
70303;SDS011;57712;48.752;11.348;2023-09-19T11:30:44;4.53;;;1.25;;
70303;SDS011;57712;48.752;11.348;2023-09-19T11:35:59;4.60;;;0.80;;
70303;SDS011;57712;48.752;11.348;2023-09-19T11:46:14;4.68;;;0.90;;
70303;SDS011;57712;48.752;11.348;2023-09-19T11:48:43;4.43;;;1.20;;
70303;SDS011;57712;48.752;11.348;2023-09-19T11:51:11;3.80;;;0.68;;
70303;SDS011;57712;48.752;11.348;2023-09-19T11:53:46;3.78;;;0.90;;
70303;SDS011;57712;48.752;11.348;2023-09-19T11:56:15;4.10;;;0.90;;
70303;SDS011;57712;48.752;11.348;2023-09-19T11:58:44;5.38;;;1.10;;
70303;SDS011;57712;48.752;11.348;2023-09-19T12:01:12;4.27;;;1.20;;
70303;SDS011;57712;48.752;11.348;2023-09-19T12:03:45;4.13;;;0.85;;
70303;SDS011;57712;48.752;11.348;2023-09-19T12:06:14;3.67;;;0.80;;
70303;SDS011;57712;48.752;11.348;2023-09-19T12:08:42;3.65;;;0.90;;
70303;SDS011;57712;48.752;11.348;2023-09-19T12:11:13;4.57;;;0.90;;
70303;SDS011;57712;48.752;11.348;2023-09-19T12:13:44;3.40;;;0.77;;
70303;SDS011;57712;48.752;11.348;2023-09-19T12:16:16;4.63;;;0.90;;
70303;SDS011;57712;48.752;11.348;2023-09-19T12:18:50;3.25;;;0.85;;
70303;SDS011;57712;48.752;11.348;2023-09-19T12:21:23;4.25;;;0.75;;
70303;SDS011;57712;48.752;11.348;2023-09-19T12:24:25;3.80;;;1.00;;
70303;SDS011;57712;48.752;11.348;2023-09-19T12:26:46;4.67;;;0.80;;
70303;SDS011;57712;48.752;11.348;2023-09-19T12:29:19;4.10;;;0.77;;
70303;SDS011;57712;48.752;11.348;2023-09-19T12:31:48;4.00;;;1.00;;
70303;SDS011;57712;48.752;11.348;2023-09-19T12:34:20;3.85;;;0.50;;
70303;SDS011;57712;48.752;11.348;2023-09-19T12:36:49;4.13;;;1.00;;
70303;SDS011;57712;48.752;11.348;2023-09-19T12:39:24;3.47;;;0.67;;
70303;SDS011;57712;48.752;11.348;2023-09-19T12:41:52;4.03;;;0.80;;
70303;SDS011;57712;48.752;11.348;2023-09-19T12:44:20;4.32;;;0.90;;
70303;SDS011;57712;48.752;11.348;2023-09-19T12:46:47;3.60;;;0.90;;
70303;SDS011;57712;48.752;11.348;2023-09-19T12:49:20;3.80;;;1.10;;
70303;SDS011;57712;48.752;11.348;2023-09-19T12:51:46;3.90;;;0.90;;
70303;SDS011;57712;48.752;11.348;2023-09-19T12:54:14;3.50;;;0.63;;
70303;SDS011;57712;48.752;11.348;2023-09-19T12:56:44;3.75;;;0.70;;
70303;SDS011;57712;48.752;11.348;2023-09-19T12:59:12;3.67;;;1.02;;
70303;SDS011;57712;48.752;11.348;2023-09-19T13:01:40;4.78;;;0.82;;
70303;SDS011;57712;48.752;11.348;2023-09-19T13:04:17;4.93;;;1.10;;
70303;SDS011;57712;48.752;11.348;2023-09-19T13:06:47;4.03;;;1.20;;
70303;SDS011;57712;48.752;11.348;2023-09-19T13:09:18;3.85;;;0.88;;
70303;SDS011;57712;48.752;11.348;2023-09-19T13:11:47;3.58;;;0.90;;
70303;SDS011;57712;48.752;11.348;2023-09-19T13:14:23;3.78;;;1.20;;
70303;SDS011;57712;48.752;11.348;2023-09-19T13:16:58;4.03;;;0.80;;
70303;SDS011;57712;48.752;11.348;2023-09-19T13:19:46;3.83;;;0.68;;
70303;SDS011;57712;48.752;11.348;2023-09-19T13:25:21;4.30;;;0.73;;
70303;SDS011;57712;48.752;11.348;2023-09-19T13:27:52;4.80;;;1.10;;
70303;SDS011;57712;48.752;11.348;2023-09-19T13:30:24;4.87;;;0.87;;
70303;SDS011;57712;48.752;11.348;2023-09-19T13:32:52;3.90;;;0.60;;
70303;SDS011;57712;48.752;11.348;2023-09-19T13:35:31;3.45;;;0.85;;
70303;SDS011;57712;48.752;11.348;2023-09-19T13:37:57;3.92;;;0.90;;
70303;SDS011;57712;48.752;11.348;2023-09-19T13:40:24;3.40;;;1.27;;
70303;SDS011;57712;48.752;11.348;2023-09-19T13:42:57;4.37;;;0.80;;
70303;SDS011;57712;48.752;11.348;2023-09-19T13:45:23;3.97;;;0.90;;
70303;SDS011;57712;48.752;11.348;2023-09-19T13:47:53;6.03;;;1.20;;
70303;SDS011;57712;48.752;11.348;2023-09-19T13:50:20;3.55;;;0.77;;
70303;SDS011;57712;48.752;11.348;2023-09-19T13:52:51;4.53;;;0.98;;
70303;SDS011;57712;48.752;11.348;2023-09-19T13:55:18;3.57;;;0.80;;
70303;SDS011;57712;48.752;11.348;2023-09-19T13:57:49;3.85;;;0.80;;
70303;SDS011;57712;48.752;11.348;2023-09-19T14:00:16;5.03;;;1.10;;
70303;SDS011;57712;48.752;11.348;2023-09-19T14:02:44;3.65;;;0.80;;
70303;SDS011;57712;48.752;11.348;2023-09-19T14:05:12;3.72;;;1.08;;
70303;SDS011;57712;48.752;11.348;2023-09-19T14:07:41;3.73;;;0.83;;
70303;SDS011;57712;48.752;11.348;2023-09-19T14:10:08;3.55;;;0.80;;
70303;SDS011;57712;48.752;11.348;2023-09-19T14:12:39;4.18;;;0.70;;
70303;SDS011;57712;48.752;11.348;2023-09-19T14:15:11;3.97;;;0.82;;
70303;SDS011;57712;48.752;11.348;2023-09-19T14:17:38;3.30;;;1.10;;
70303;SDS011;57712;48.752;11.348;2023-09-19T14:20:06;3.60;;;0.83;;
70303;SDS011;57712;48.752;11.348;2023-09-19T14:22:33;3.28;;;0.85;;
70303;SDS011;57712;48.752;11.348;2023-09-19T14:25:00;3.70;;;0.98;;
70303;SDS011;57712;48.752;11.348;2023-09-19T14:27:27;4.18;;;0.75;;
70303;SDS011;57712;48.752;11.348;2023-09-19T14:29:53;4.07;;;0.85;;
70303;SDS011;57712;48.752;11.348;2023-09-19T14:32:20;4.97;;;1.30;;
70303;SDS011;57712;48.752;11.348;2023-09-19T14:34:47;5.40;;;0.95;;
70303;SDS011;57712;48.752;11.348;2023-09-19T14:37:13;6.10;;;0.80;;
70303;SDS011;57712;48.752;11.348;2023-09-19T14:39:40;4.72;;;0.88;;
70303;SDS011;57712;48.752;11.348;2023-09-19T14:42:10;3.65;;;1.25;;
70303;SDS011;57712;48.752;11.348;2023-09-19T14:44:37;4.07;;;0.90;;
70303;SDS011;57712;48.752;11.348;2023-09-19T14:47:03;4.95;;;0.75;;
70303;SDS011;57712;48.752;11.348;2023-09-19T14:49:34;3.88;;;1.27;;
70303;SDS011;57712;48.752;11.348;2023-09-19T14:52:01;3.20;;;0.80;;
70303;SDS011;57712;48.752;11.348;2023-09-19T14:54:30;3.40;;;0.80;;
70303;SDS011;57712;48.752;11.348;2023-09-19T14:56:57;3.50;;;0.80;;
70303;SDS011;57712;48.752;11.348;2023-09-19T14:59:30;4.03;;;0.98;;
70303;SDS011;57712;48.752;11.348;2023-09-19T15:01:58;3.03;;;0.60;;
70303;SDS011;57712;48.752;11.348;2023-09-19T15:04:26;3.10;;;0.77;;
70303;SDS011;57712;48.752;11.348;2023-09-19T15:06:54;4.55;;;1.00;;
70303;SDS011;57712;48.752;11.348;2023-09-19T15:09:21;3.30;;;1.10;;
70303;SDS011;57712;48.752;11.348;2023-09-19T15:11:52;3.67;;;0.93;;
70303;SDS011;57712;48.752;11.348;2023-09-19T15:14:20;3.63;;;0.90;;
70303;SDS011;57712;48.752;11.348;2023-09-19T15:16:47;3.42;;;0.90;;
70303;SDS011;57712;48.752;11.348;2023-09-19T15:19:14;3.67;;;1.00;;
70303;SDS011;57712;48.752;11.348;2023-09-19T15:21:41;4.20;;;0.93;;
70303;SDS011;57712;48.752;11.348;2023-09-19T15:24:08;3.83;;;0.82;;
70303;SDS011;57712;48.752;11.348;2023-09-19T15:26:36;4.13;;;1.13;;
70303;SDS011;57712;48.752;11.348;2023-09-19T15:29:06;3.25;;;0.63;;
70303;SDS011;57712;48.752;11.348;2023-09-19T15:31:33;3.60;;;1.10;;
70303;SDS011;57712;48.752;11.348;2023-09-19T15:34:03;4.73;;;0.80;;